This is the latest recevied weather packets stored in our database for station/object K7SPS-10. If no packets are shown the sender has not sent any weather packets the latest 10 day(s).
| Time | Temp. | Humidity | Pressure | Rain* | Wind** | Luminosity | Snow |
|---|---|---|---|---|---|---|---|
| 1778331470 | 10° C | 63% | 1021 hPa | 0 mm | - | 21 W/m² | - |
| 1778331167 | 10° C | 63% | 1021.1 hPa | 0 mm | - | 17 W/m² | - |
| 1778330863 | 10° C | 63% | 1021.1 hPa | 0 mm | - | 13 W/m² | - |
| 1778330560 | 10.56° C | 62% | 1021 hPa | 0 mm | - | 9 W/m² | - |
| 1778330258 | 10° C | 62% | 1020.9 hPa | 0 mm | - | 6 W/m² | - |
| 1778329955 | 10° C | 63% | 1020.9 hPa | 0 mm | - | 4 W/m² | - |
| 1778329651 | 9.44° C | 64% | 1021 hPa | 0 mm | - | 3 W/m² | - |
| 1778329348 | 9.44° C | 63% | 1020.9 hPa | 0 mm | - | 1 W/m² | - |
| 1778329045 | 10.56° C | 61% | 1020.8 hPa | 0 mm | - | 1 W/m² | - |
| 1778328742 | 8.89° C | 65% | 1020.9 hPa | 0 mm | - | 0 W/m² | - |
| 1778328440 | 10° C | 62% | 1020.8 hPa | 0 mm | - | 0 W/m² | - |
| 1778328138 | 10° C | 61% | 1021 hPa | 0 mm | - | 0 W/m² | - |
| 1778327835 | 10.56° C | 60% | 1020.5 hPa | 0 mm | - | 0 W/m² | - |
| 1778327532 | 10° C | 61% | 1020.4 hPa | 0 mm | - | 0 W/m² | - |
| 1778327231 | 10° C | 63% | 1020.6 hPa | 0 mm | - | 0 W/m² | - |
| 1778326929 | 10.56° C | 61% | 1020.6 hPa | 0 mm | - | 0 W/m² | - |
| 1778326628 | 10° C | 63% | 1020.5 hPa | 0 mm | - | 0 W/m² | - |
| 1778326324 | 10.56° C | 62% | 1020.7 hPa | 0 mm | - | 0 W/m² | - |
| 1778326021 | 10° C | 62% | 1020.5 hPa | 0 mm | - | 0 W/m² | - |
| 1778325718 | 10° C | 63% | 1020.5 hPa | 0 mm | - | 0 W/m² | - |
| 1778325415 | 10.56° C | 63% | 1020.6 hPa | 0 mm | - | 0 W/m² | - |
| 1778325112 | 10.56° C | 61% | 1020.6 hPa | 0 mm | - | 0 W/m² | - |
| 1778324809 | 10.56° C | 60% | 1020.6 hPa | 0 mm | - | 0 W/m² | - |
| 1778324506 | 11.11° C | 59% | 1020.2 hPa | 0 mm | - | 0 W/m² | - |
| 1778324204 | 11.67° C | 56% | 1020.2 hPa | 0 mm | - | 0 W/m² | - |
* Rain latest hour (hover to see other rain measurements)
** Current wind speed in m/s (hover to see current wind gust speed)